Time;durP1;ratioP1;P1;durP2;ratioP2;P2;SDS_P1;SDS_P2;PMS_P1;PMS_P2;Temp;Humidity;BMP_temperature;BMP_pressure;BME280_temperature;BME280_humidity;BME280_pressure;Samples;Min_cycle;Max_cycle;Signal;HPM_P1;HPM_P2
2023/10/06 00:02:28;;;;;;;2.62;1.33;;;;;;;15.44;60.08;100398.88;4487320;31;34847;-80
2023/10/06 00:04:58;;;;;;;4.32;1.65;;;;;;;15.48;59.50;100398.78;4493622;31;33665;-80
2023/10/06 00:07:29;;;;;;;2.22;1.45;;;;;;;15.31;60.09;100400.91;4492281;31;33753;-82
2023/10/06 00:09:59;;;;;;;2.03;1.58;;;;;;;15.48;59.72;100409.25;4489208;31;34068;-81
2023/10/06 00:12:31;;;;;;;2.10;1.23;;;;;;;15.41;59.93;100417.28;4488176;31;33425;-81
2023/10/06 00:15:07;;;;;;;3.62;2.08;;;;;;;15.38;60.27;100406.87;4489428;31;33475;-79
2023/10/06 00:17:36;;;;;;;4.62;2.03;;;;;;;15.31;60.56;100401.78;4494349;31;34001;-82
2023/10/06 00:20:21;;;;;;;6.75;1.37;;;;;;;15.44;60.60;100406.72;4485623;31;33385;-81
2023/10/06 00:22:50;;;;;;;2.72;1.50;;;;;;;15.07;61.84;100410.13;4487257;31;33890;-80
2023/10/06 00:25:19;;;;;;;2.80;1.60;;;;;;;15.33;60.88;100410.44;4475630;31;33192;-81
2023/10/06 00:27:50;;;;;;;2.22;1.35;;;;;;;15.16;61.41;100417.78;4488238;31;32637;-81
2023/10/06 00:30:20;;;;;;;;;;;;;;;15.10;61.42;100413.56;4494010;31;33799;-82
2023/10/06 00:32:49;;;;;;;1.87;1.42;;;;;;;15.22;60.71;100411.56;4487599;31;34718;-80
2023/10/06 00:35:29;;;;;;;3.42;1.60;;;;;;;15.02;61.33;100417.19;4488963;31;33613;-82
2023/10/06 00:38:10;;;;;;;2.53;1.35;;;;;;;15.18;60.51;100421.22;4487470;31;33609;-82
2023/10/06 00:40:40;;;;;;;3.15;1.90;;;;;;;14.98;61.09;100421.62;4488135;31;33313;-81
2023/10/06 00:43:15;;;;;;;3.80;1.73;;;;;;;15.15;60.79;100416.94;4492895;31;33647;-83
2023/10/06 00:45:46;;;;;;;3.50;1.50;;;;;;;15.08;60.77;100420.56;4486619;31;33536;-82
2023/10/06 00:48:15;;;;;;;2.33;1.50;;;;;;;14.95;60.96;100424.28;4487136;31;32616;-81
2023/10/06 00:50:44;;;;;;;1.87;1.40;;;;;;;15.06;60.28;100418.88;4487075;31;32976;-82
2023/10/06 00:53:15;;;;;;;2.78;1.52;;;;;;;15.10;60.14;100418.78;4492523;31;33922;-82
2023/10/06 00:55:45;;;;;;;2.35;1.37;;;;;;;15.13;59.65;100421.31;4496691;31;33653;-80
2023/10/06 00:58:19;;;;;;;1.58;1.20;;;;;;;15.11;59.44;100425.72;4490300;31;33853;-82
2023/10/06 01:00:48;;;;;;;2.08;1.15;;;;;;;14.80;60.31;100414.16;4489379;31;33967;-81
2023/10/06 01:03:16;;;;;;;5.30;1.95;;;;;;;15.04;59.16;100423.25;4489950;31;34519;-81
2023/10/06 01:05:46;;;;;;;2.75;1.20;;;;;;;14.84;59.22;100416.66;4496938;31;33625;-81
2023/10/06 01:08:16;;;;;;;2.12;1.35;;;;;;;15.06;58.16;100411.03;4485406;31;33779;-82
2023/10/06 01:10:51;;;;;;;1.62;1.20;;;;;;;14.98;58.28;100412.91;4480382;31;32560;-82
2023/10/06 01:13:27;;;;;;;2.87;1.30;;;;;;;15.00;58.32;100411.13;4487154;31;34371;-82
2023/10/06 01:15:56;;;;;;;2.30;1.60;;;;;;;14.79;59.11;100412.44;4490399;31;33829;-81
2023/10/06 01:18:33;;;;;;;;;;;;;;;15.00;58.39;100411.13;4495935;31;34344;-81
2023/10/06 01:21:17;;;;;;;5.85;1.90;;;;;;;14.72;58.96;100406.47;4491249;31;33442;-81
2023/10/06 01:23:48;;;;;;;2.47;1.30;;;;;;;14.84;58.04;100408.84;4486867;31;33751;-81
2023/10/06 01:26:16;;;;;;;1.20;1.00;;;;;;;14.92;57.92;100406.91;4489296;31;33555;-80
2023/10/06 01:28:47;;;;;;;1.95;1.23;;;;;;;14.82;58.42;100413.22;4487961;31;33469;-82
2023/10/06 01:31:19;;;;;;;6.32;1.80;;;;;;;14.80;58.49;100415.00;4497831;31;33004;-81
2023/10/06 01:33:48;;;;;;;1.53;1.30;;;;;;;14.67;59.13;100421.34;4493243;31;34283;-82
2023/10/06 01:36:22;;;;;;;4.55;1.90;;;;;;;14.56;59.60;100421.53;4489725;31;33772;-82
2023/10/06 01:38:53;;;;;;;2.40;1.20;;;;;;;14.20;60.72;100423.00;4491196;31;34448;-81
2023/10/06 01:41:26;;;;;;;3.95;1.40;;;;;;;14.23;60.85;100429.03;4493401;31;33378;-80
2023/10/06 01:43:55;;;;;;;5.75;2.10;;;;;;;14.07;61.67;100425.81;4496384;31;33583;-81
2023/10/06 01:46:26;;;;;;;2.37;1.37;;;;;;;14.22;61.15;100429.06;4490639;31;33676;-80
2023/10/06 01:48:55;;;;;;;;;;;;;;;14.05;61.80;100430.16;4488527;31;34297;-81
2023/10/06 01:51:23;;;;;;;3.90;1.73;;;;;;;14.18;61.56;100432.59;4488661;31;33198;-81
2023/10/06 01:53:53;;;;;;;4.05;1.90;;;;;;;14.36;60.87;100427.06;4496948;31;34052;-81
2023/10/06 01:56:24;;;;;;;3.63;1.77;;;;;;;14.25;61.28;100431.59;4491846;31;33941;-81
2023/10/06 01:58:52;;;;;;;3.72;1.35;;;;;;;14.28;61.19;100436.78;4490156;31;34275;-80
2023/10/06 02:01:21;;;;;;;3.62;1.75;;;;;;;14.32;60.97;100445.41;4493426;31;33360;-80
2023/10/06 02:03:50;;;;;;;3.92;1.50;;;;;;;14.32;60.67;100443.66;4496948;31;33965;-80
2023/10/06 02:06:19;;;;;;;3.10;1.65;;;;;;;14.25;60.73;100442.91;4489615;31;34086;-82
2023/10/06 02:08:52;;;;;;;2.58;1.48;;;;;;;14.21;60.78;100453.44;4492142;31;33414;-82
2023/10/06 02:11:30;;;;;;;2.28;1.58;;;;;;;14.30;59.71;100451.53;4491277;31;32789;-81
2023/10/06 02:13:59;;;;;;;3.28;1.40;;;;;;;14.35;59.75;100450.59;4491531;31;34291;-81
2023/10/06 02:16:29;;;;;;;4.12;2.20;;;;;;;14.39;59.02;100452.25;4496143;31;33991;-81
2023/10/06 02:18:58;;;;;;;2.92;1.27;;;;;;;14.22;59.67;100455.16;4490660;31;34229;-82
2023/10/06 02:21:29;;;;;;;3.85;1.80;;;;;;;14.30;59.01;100458.47;4491052;31;32986;-80
2023/10/06 02:24:03;;;;;;;3.03;1.62;;;;;;;14.03;59.63;100446.75;4490513;31;34823;-82
2023/10/06 02:26:36;;;;;;;5.00;2.00;;;;;;;14.19;59.23;100447.37;4491753;31;34096;-82
2023/10/06 02:29:16;;;;;;;4.55;1.77;;;;;;;14.13;59.57;100445.69;4495836;31;33532;-80
2023/10/06 02:31:45;;;;;;;4.95;2.17;;;;;;;14.25;59.00;100445.50;4487449;31;33738;-81
2023/10/06 02:34:15;;;;;;;4.45;1.50;;;;;;;14.29;59.19;100451.56;4489651;31;34439;-80
2023/10/06 02:36:44;;;;;;;3.25;1.50;;;;;;;14.32;58.92;100453.25;4490860;31;34524;-80
2023/10/06 02:39:15;;;;;;;3.20;1.95;;;;;;;14.04;59.94;100457.16;4496577;31;34699;-81
2023/10/06 02:41:47;;;;;;;4.03;1.90;;;;;;;14.23;59.20;100451.63;4495311;31;34330;-81
2023/10/06 02:44:22;;;;;;;4.35;1.85;;;;;;;14.19;59.41;100463.87;4489616;31;33945;-80
2023/10/06 02:46:52;;;;;;;2.28;1.60;;;;;;;14.14;59.43;100459.62;4487362;31;33488;-82
2023/10/06 02:49:31;;;;;;;1.35;1.08;;;;;;;14.11;59.38;100465.78;4489839;31;33718;-82
2023/10/06 02:52:02;;;;;;;3.62;1.98;;;;;;;14.12;59.32;100458.78;4495462;31;32888;-82
2023/10/06 02:54:33;;;;;;;2.47;1.48;;;;;;;14.12;59.40;100459.66;4491408;31;33565;-80
2023/10/06 02:57:04;;;;;;;3.10;1.50;;;;;;;14.14;59.28;100457.03;4490810;31;34525;-82
2023/10/06 02:59:35;;;;;;;3.92;1.70;;;;;;;14.09;58.92;100457.09;4489297;31;33929;-81
2023/10/06 03:02:13;;;;;;;3.28;1.40;;;;;;;14.20;58.47;100464.75;4489740;31;33601;-82
2023/10/06 03:04:49;;;;;;;3.53;1.62;;;;;;;13.78;59.94;100469.72;4495516;31;34559;-80
2023/10/06 03:07:19;;;;;;;3.12;1.40;;;;;;;13.91;59.38;100471.25;4490224;31;33681;-82
2023/10/06 03:09:48;;;;;;;2.75;1.42;;;;;;;13.96;59.01;100465.97;4489218;31;33918;-82
2023/10/06 03:12:26;;;;;;;3.70;1.80;;;;;;;13.98;59.05;100464.22;4491622;31;33236;-81
2023/10/06 03:14:56;;;;;;;2.67;1.35;;;;;;;13.85;59.62;100467.00;4491319;31;33750;-81
2023/10/06 03:17:26;;;;;;;2.47;1.77;;;;;;;14.18;58.75;100467.41;4495816;31;34467;-80
2023/10/06 03:20:08;;;;;;;3.62;2.05;;;;;;;14.13;58.46;100468.34;4487368;31;34333;-81
2023/10/06 03:22:40;;;;;;;2.28;1.33;;;;;;;14.02;59.04;100468.50;4488726;31;33518;-80
2023/10/06 03:25:17;;;;;;;1.37;1.02;;;;;;;14.12;58.91;100467.47;4486624;31;34723;-80
2023/10/06 03:27:52;;;;;;;2.17;1.65;;;;;;;13.91;59.77;100468.66;4490063;31;34441;-81
2023/10/06 03:30:26;;;;;;;2.37;1.75;;;;;;;14.22;58.54;100458.63;4496207;31;33852;-80
2023/10/06 03:32:57;;;;;;;2.80;1.48;;;;;;;14.06;58.98;100463.22;4485931;31;32906;-82
2023/10/06 03:35:36;;;;;;;2.42;1.25;;;;;;;14.04;58.97;100458.91;4488635;31;34363;-80
2023/10/06 03:38:27;;;;;;;3.30;1.75;;;;;;;13.95;59.32;100467.72;4490469;31;35796;-80
2023/10/06 03:41:13;;;;;;;2.87;1.50;;;;;;;14.02;58.40;100465.91;4486927;31;33789;-81
2023/10/06 03:43:48;;;;;;;4.30;1.85;;;;;;;14.09;58.65;100463.16;4491416;31;33194;-82
2023/10/06 03:46:18;;;;;;;2.60;1.65;;;;;;;14.23;58.29;100462.97;4491683;31;34311;-80
2023/10/06 03:48:51;;;;;;;5.55;3.90;;;;;;;14.34;57.77;100461.91;4489052;31;33032;-80
2023/10/06 03:51:21;;;;;;;1.98;1.30;;;;;;;14.00;58.22;100455.47;4487388;31;33566;-80
2023/10/06 03:53:50;;;;;;;4.78;1.85;;;;;;;13.97;58.53;100458.13;4485838;31;33077;-81
2023/10/06 03:56:18;;;;;;;2.83;1.52;;;;;;;13.99;58.62;100461.59;4489111;31;33671;-81
2023/10/06 03:58:49;;;;;;;2.65;1.60;;;;;;;13.93;58.74;100463.41;4489895;31;33963;-81
2023/10/06 04:01:25;;;;;;;9.47;3.27;;;;;;;13.93;58.83;100461.66;4488313;31;32979;-80
2023/10/06 04:03:58;;;;;;;3.08;1.67;;;;;;;13.86;58.99;100455.66;4490456;31;33161;-80
2023/10/06 04:06:27;;;;;;;3.33;1.60;;;;;;;13.96;58.67;100460.75;4489607;31;34448;-81
2023/10/06 04:08:59;;;;;;;3.12;1.35;;;;;;;13.96;59.01;100461.63;4491804;31;33774;-80
2023/10/06 04:11:29;;;;;;;3.37;1.23;;;;;;;14.17;58.49;100470.87;4490413;31;33617;-82
2023/10/06 04:14:00;;;;;;;2.58;1.60;;;;;;;14.28;57.56;100466.34;4489241;31;33440;-82
2023/10/06 04:16:30;;;;;;;3.30;1.40;;;;;;;14.34;57.27;100470.59;4489632;31;33590;-80
2023/10/06 04:19:02;;;;;;;5.72;1.92;;;;;;;14.36;57.15;100465.38;4489434;31;33579;-81
2023/10/06 04:21:31;;;;;;;4.00;2.05;;;;;;;14.21;57.58;100461.28;4495613;31;33619;-81
2023/10/06 04:24:00;;;;;;;5.32;1.85;;;;;;;14.13;57.79;100460.50;4489942;31;34257;-81
2023/10/06 04:26:30;;;;;;;3.58;1.60;;;;;;;14.12;57.95;100464.00;4488032;31;33652;-81
2023/10/06 04:29:01;;;;;;;3.62;1.98;;;;;;;14.16;57.91;100466.56;4487162;31;34802;-80
2023/10/06 04:31:30;;;;;;;;;;;;;;;14.23;57.98;100472.50;4493044;31;34404;-82
2023/10/06 04:33:58;;;;;;;6.47;1.60;;;;;;;14.00;58.07;100481.56;4485837;31;33252;-80
2023/10/06 04:36:28;;;;;;;4.07;1.23;;;;;;;14.20;57.52;100475.19;4490931;31;34335;-81
2023/10/06 04:38:57;;;;;;;3.20;1.85;;;;;;;14.34;57.23;100475.81;4491287;31;33806;-80
2023/10/06 04:41:25;;;;;;;5.45;2.17;;;;;;;14.30;57.35;100479.38;4495681;31;33568;-80
2023/10/06 04:44:00;;;;;;;3.33;1.55;;;;;;;14.08;57.89;100476.22;4492394;31;34127;-80
2023/10/06 04:46:31;;;;;;;3.83;1.60;;;;;;;14.14;58.00;100476.16;4491535;31;33859;-79
2023/10/06 04:49:00;;;;;;;3.20;1.67;;;;;;;14.14;57.88;100480.50;4483419;31;33572;-80
2023/10/06 04:51:29;;;;;;;3.75;1.83;;;;;;;14.13;57.86;100484.00;4487978;31;34381;-82
2023/10/06 04:53:59;;;;;;;1.48;1.37;;;;;;;14.54;56.88;100485.13;4496460;31;32955;-80
2023/10/06 04:56:32;;;;;;;3.62;1.92;;;;;;;14.43;56.93;100485.28;4490236;31;34797;-81
2023/10/06 04:59:01;;;;;;;3.85;1.92;;;;;;;14.37;57.32;100488.81;4491554;31;33816;-81
2023/10/06 05:01:31;;;;;;;3.97;1.75;;;;;;;14.50;56.98;100490.38;4491001;31;33963;-82
2023/10/06 05:04:05;;;;;;;4.45;2.05;;;;;;;14.32;57.61;100490.66;4494216;31;33303;-82
2023/10/06 05:06:35;;;;;;;1.67;1.17;;;;;;;14.38;57.19;100482.72;4496362;31;33612;-80
2023/10/06 05:09:06;;;;;;;4.68;1.92;;;;;;;14.41;57.21;100485.28;4491255;31;33647;-81
2023/10/06 05:11:37;;;;;;;4.55;2.00;;;;;;;14.23;57.90;100496.00;4491670;31;33319;-81
2023/10/06 05:14:08;;;;;;;5.45;1.83;;;;;;;14.43;57.39;100495.72;4491367;31;33973;-81
2023/10/06 05:16:39;;;;;;;4.20;1.50;;;;;;;14.51;57.17;100506.88;4497264;31;33864;-81
2023/10/06 05:19:08;;;;;;;3.80;2.33;;;;;;;14.10;58.25;100503.16;4490969;31;34869;-80
2023/10/06 05:21:37;;;;;;;3.95;1.58;;;;;;;14.32;57.33;100515.88;4490843;31;33715;-82
2023/10/06 05:24:08;;;;;;;2.37;1.55;;;;;;;14.12;57.85;100522.28;4489240;31;33690;-81
2023/10/06 05:26:37;;;;;;;3.80;2.08;;;;;;;14.30;57.65;100524.63;4489007;31;34045;-82
2023/10/06 05:29:09;;;;;;;3.80;1.33;;;;;;;14.16;57.91;100533.50;4495430;31;34361;-80
2023/10/06 05:31:40;;;;;;;2.08;1.33;;;;;;;14.06;58.10;100536.28;4488432;31;34246;-80
2023/10/06 05:34:10;;;;;;;2.85;1.40;;;;;;;14.15;57.78;100537.88;4488013;31;31212;-82
2023/10/06 05:36:41;;;;;;;5.80;2.15;;;;;;;14.24;57.89;100540.34;4488289;31;34621;-81
2023/10/06 05:39:11;;;;;;;1.92;1.65;;;;;;;13.99;58.55;100539.84;4492655;31;33220;-79
2023/10/06 05:41:44;;;;;;;8.65;2.47;;;;;;;14.07;58.39;100535.37;4490128;31;33284;-81
2023/10/06 05:44:13;;;;;;;5.37;1.70;;;;;;;14.27;58.09;100552.50;4489536;31;34017;-80
2023/10/06 05:46:44;;;;;;;5.70;1.60;;;;;;;14.36;57.88;100556.72;4489187;31;33557;-80
2023/10/06 05:49:13;;;;;;;4.62;1.30;;;;;;;14.37;58.32;100551.47;4483444;31;32546;-82
2023/10/06 05:51:43;;;;;;;5.50;2.33;;;;;;;14.37;58.36;100554.09;4488887;31;33645;-81
2023/10/06 05:54:21;;;;;;;3.83;1.67;;;;;;;14.48;58.18;100559.16;4490302;31;33376;-82
2023/10/06 05:56:53;;;;;;;1.30;1.20;;;;;;;14.59;57.93;100567.69;4484122;31;34478;-80
2023/10/06 05:59:22;;;;;;;1.73;1.37;;;;;;;14.68;57.58;100566.72;4484460;31;33835;-80
2023/10/06 06:01:57;;;;;;;5.20;2.03;;;;;;;14.63;58.04;100573.75;4489924;31;33910;-80
2023/10/06 06:04:28;;;;;;;8.40;2.03;;;;;;;14.73;57.79;100570.09;4489976;31;33715;-81
2023/10/06 06:06:57;;;;;;;1.37;1.25;;;;;;;14.80;57.92;100571.72;4479896;31;34317;-82
2023/10/06 06:09:27;;;;;;;2.83;1.20;;;;;;;14.94;57.06;100569.75;4482627;31;34326;-81
2023/10/06 06:11:58;;;;;;;2.72;1.40;;;;;;;14.93;57.20;100578.50;4487749;31;34442;-81
2023/10/06 06:14:27;;;;;;;2.50;1.50;;;;;;;15.06;57.65;100573.03;4489760;31;32503;-79
2023/10/06 06:16:57;;;;;;;4.18;1.35;;;;;;;15.04;57.90;100577.44;4487929;31;33484;-81
2023/10/06 06:19:26;;;;;;;3.08;1.80;;;;;;;15.14;57.42;100579.00;4483296;31;33587;-81
2023/10/06 06:21:55;;;;;;;3.53;1.80;;;;;;;15.03;57.75;100581.81;4489924;31;33807;-80
2023/10/06 06:24:24;;;;;;;2.50;1.10;;;;;;;15.16;57.51;100585.06;4490589;31;32952;-80
2023/10/06 06:26:52;;;;;;;4.05;1.77;;;;;;;15.31;56.93;100590.00;4496035;31;34306;-80
2023/10/06 06:29:22;;;;;;;2.60;1.58;;;;;;;15.22;57.06;100587.56;4490789;31;33514;-81
2023/10/06 06:31:52;;;;;;;2.12;1.30;;;;;;;15.44;56.17;100588.03;4485978;31;33434;-80
2023/10/06 06:34:23;;;;;;;;;;;;;;;15.31;55.95;100590.00;4484485;31;32671;-80
2023/10/06 06:36:51;;;;;;;4.07;1.37;;;;;;;15.09;56.29;100588.66;4492165;31;33604;-79
2023/10/06 06:39:21;;;;;;;4.45;1.98;;;;;;;15.01;57.08;100596.66;4488025;31;32842;-81
2023/10/06 06:41:53;;;;;;;2.72;1.60;;;;;;;14.76;57.60;100596.16;4484978;31;33674;-80
2023/10/06 06:44:23;;;;;;;3.12;1.75;;;;;;;15.02;57.34;100597.50;4485108;31;32554;-80
2023/10/06 06:46:52;;;;;;;3.65;1.75;;;;;;;14.99;57.12;100601.03;4493419;31;33478;-80
2023/10/06 06:49:21;;;;;;;2.53;1.42;;;;;;;14.88;57.09;100602.94;4492279;31;33771;-80
2023/10/06 06:51:52;;;;;;;4.80;1.77;;;;;;;14.64;57.96;100607.69;4484653;31;34638;-80
2023/10/06 06:54:21;;;;;;;2.97;1.50;;;;;;;14.71;57.78;100616.28;4491705;31;33681;-79
2023/10/06 06:56:50;;;;;;;4.35;2.08;;;;;;;14.85;57.25;100616.91;4487326;31;33636;-80
2023/10/06 06:59:19;;;;;;;2.80;1.40;;;;;;;14.72;57.54;100624.09;4494919;31;33329;-81
2023/10/06 07:01:48;;;;;;;5.57;2.12;;;;;;;14.81;57.27;100630.94;4486283;31;34523;-81
2023/10/06 07:04:17;;;;;;;2.15;1.40;;;;;;;15.01;56.78;100633.22;4487455;31;34097;-81
2023/10/06 07:06:46;;;;;;;6.03;1.73;;;;;;;14.90;57.44;100638.59;4487517;31;34278;-79
2023/10/06 07:09:17;;;;;;;3.67;2.00;;;;;;;14.87;57.29;100636.06;4491622;31;34146;-80
2023/10/06 07:11:49;;;;;;;3.42;1.50;;;;;;;15.08;57.00;100639.22;4483465;31;33716;-80
2023/10/06 07:14:18;;;;;;;5.03;1.98;;;;;;;15.25;56.74;100641.56;4482809;31;33176;-79
2023/10/06 07:16:48;;;;;;;4.62;1.62;;;;;;;15.22;56.94;100637.25;4486461;31;34391;-80
2023/10/06 07:19:17;;;;;;;7.12;1.40;;;;;;;15.33;56.84;100642.28;4490058;31;34260;-80
2023/10/06 07:21:46;;;;;;;2.60;1.42;;;;;;;15.45;56.59;100638.56;4487603;31;33838;-81
2023/10/06 07:24:18;;;;;;;2.90;1.65;;;;;;;15.27;56.77;100638.03;4485363;31;33247;-81
2023/10/06 07:26:47;;;;;;;3.60;1.90;;;;;;;15.48;56.15;100638.50;4481805;31;82723;-79
2023/10/06 07:29:16;;;;;;;5.50;1.87;;;;;;;15.23;56.62;100630.25;4488517;31;33258;-80
2023/10/06 07:31:48;;;;;;;3.58;1.70;;;;;;;15.45;56.44;100643.81;4490298;31;34418;-80
2023/10/06 07:34:18;;;;;;;2.85;1.60;;;;;;;15.65;56.33;100639.06;4486869;31;34011;-82
2023/10/06 07:36:47;;;;;;;4.68;1.50;;;;;;;15.74;55.77;100649.38;4487016;31;34700;-81
2023/10/06 07:39:20;;;;;;;3.80;1.33;;;;;;;15.71;55.02;100641.59;4485188;31;34436;-81
2023/10/06 07:41:50;;;;;;;3.20;1.73;;;;;;;15.81;56.03;100650.13;4484711;31;34605;-81
2023/10/06 07:44:20;;;;;;;2.25;1.15;;;;;;;15.98;55.72;100657.66;4490583;31;34074;-80
2023/10/06 07:46:52;;;;;;;2.83;1.62;;;;;;;16.14;54.10;100664.31;4486642;31;32880;-81
2023/10/06 07:49:21;;;;;;;3.22;1.65;;;;;;;15.99;54.52;100660.25;4489883;31;34712;-79
2023/10/06 07:51:50;;;;;;;6.15;1.73;;;;;;;15.74;54.71;100662.47;4489006;31;33462;-80
2023/10/06 07:54:23;;;;;;;2.33;1.17;;;;;;;15.68;55.37;100653.84;4492890;31;33786;-80
2023/10/06 07:56:52;;;;;;;3.55;1.60;;;;;;;16.12;55.08;100660.00;4492895;31;34432;-82
2023/10/06 07:59:21;;;;;;;3.05;1.30;;;;;;;16.31;53.94;100663.06;4484836;31;33568;-80
2023/10/06 08:01:49;;;;;;;4.53;1.33;;;;;;;16.19;54.21;100659.84;4482324;31;33464;-80
2023/10/06 08:04:22;;;;;;;4.15;1.50;;;;;;;16.39;54.20;100663.78;4482375;31;32883;-81
2023/10/06 08:06:52;;;;;;;4.03;1.77;;;;;;;16.63;53.49;100660.63;4493616;31;33928;-80
2023/10/06 08:09:25;;;;;;;4.55;1.58;;;;;;;16.59;53.52;100669.44;4483283;31;34336;-81
2023/10/06 08:11:54;;;;;;;1.70;1.05;;;;;;;16.74;53.11;100670.00;4482961;31;33010;-80
2023/10/06 08:14:24;;;;;;;2.50;1.20;;;;;;;16.99;51.88;100668.56;4483288;31;33155;-82
2023/10/06 08:16:54;;;;;;;6.30;1.37;;;;;;;16.95;52.58;100666.91;4478378;31;32744;-80
2023/10/06 08:19:24;;;;;;;2.30;1.12;;;;;;;17.04;52.59;100671.94;4473362;31;34375;-81
2023/10/06 08:21:53;;;;;;;2.08;1.12;;;;;;;17.27;52.51;100675.75;4464312;31;33764;-80
2023/10/06 08:24:23;;;;;;;2.67;1.35;;;;;;;17.44;51.02;100670.91;4468667;31;33128;-81
2023/10/06 08:26:52;;;;;;;2.10;1.15;;;;;;;17.40;51.40;100679.78;4482843;31;33019;-80
2023/10/06 08:29:21;;;;;;;2.35;1.15;;;;;;;17.50;51.36;100675.16;4487855;31;34079;-81
2023/10/06 08:31:53;;;;;;;2.62;1.12;;;;;;;17.54;51.35;100682.06;4485640;31;33611;-80
2023/10/06 08:34:22;;;;;;;7.15;2.28;;;;;;;17.75;50.51;100679.75;4482039;31;33893;-79
2023/10/06 08:36:51;;;;;;;2.80;1.50;;;;;;;17.74;49.73;100678.91;4484669;31;33885;-80
2023/10/06 08:39:20;;;;;;;2.65;1.20;;;;;;;17.68;50.84;100685.16;4493252;31;34350;-81
2023/10/06 08:41:54;;;;;;;1.87;1.15;;;;;;;17.92;50.08;100686.28;4483447;31;33668;-82
2023/10/06 08:44:23;;;;;;;2.05;1.10;;;;;;;17.76;50.34;100687.59;4483672;31;34104;-80
2023/10/06 08:46:53;;;;;;;2.42;1.17;;;;;;;18.03;49.35;100680.75;4486064;31;34340;-80
2023/10/06 08:49:22;;;;;;;2.45;1.20;;;;;;;18.03;48.95;100685.16;4484742;31;33649;-79
2023/10/06 08:51:51;;;;;;;2.65;1.30;;;;;;;18.17;48.98;100676.88;4487027;31;33512;-82
2023/10/06 08:54:21;;;;;;;2.40;0.90;;;;;;;18.34;48.54;100677.25;4483586;31;32921;-81
2023/10/06 08:56:52;;;;;;;2.97;1.90;;;;;;;18.33;48.31;100683.41;4482124;31;33720;-82
2023/10/06 08:59:21;;;;;;;2.80;1.20;;;;;;;18.43;48.52;100682.22;4487550;31;34418;-81
2023/10/06 09:01:50;;;;;;;2.75;1.27;;;;;;;18.51;47.77;100676.75;4490587;31;34176;-81
2023/10/06 09:04:19;;;;;;;4.22;1.30;;;;;;;18.40;48.03;100682.31;4488341;31;33702;-82
2023/10/06 09:07:06;;;;;;;1.12;0.73;;;;;;;19.01;44.75;100676.09;4487724;31;34538;-80
2023/10/06 09:09:36;;;;;;;2.10;1.08;;;;;;;18.73;46.02;100679.59;4483515;31;34364;-82
2023/10/06 09:12:07;;;;;;;9.38;1.67;;;;;;;18.27;47.28;100676.56;4485000;31;34654;-81
2023/10/06 09:14:52;;;;;;;3.40;1.12;;;;;;;18.44;46.79;100677.84;4490431;31;33677;-80
2023/10/06 09:17:31;;;;;;;3.58;1.67;;;;;;;18.87;46.04;100679.16;4496372;31;34727;-81
2023/10/06 09:20:00;;;;;;;1.98;1.35;;;;;;;19.02;44.81;100681.31;4488027;31;33738;-81
2023/10/06 09:22:46;;;;;;;1.17;0.90;;;;;;;19.24;45.27;100678.00;4490783;31;34612;-80
2023/10/06 09:25:17;;;;;;;1.75;1.17;;;;;;;19.43;44.00;100681.72;4490777;31;34284;-81
2023/10/06 09:27:48;;;;;;;3.10;0.80;;;;;;;19.13;44.55;100681.81;4484272;31;33184;-82
2023/10/06 09:30:20;;;;;;;1.17;0.82;;;;;;;19.41;43.77;100683.53;4490310;31;34066;-80
2023/10/06 09:33:01;;;;;;;2.15;1.23;;;;;;;19.19;45.07;100681.63;4486926;31;34679;-81
2023/10/06 09:35:30;;;;;;;3.00;1.15;;;;;;;19.38;45.51;100671.34;4487283;31;33049;-82
2023/10/06 09:38:14;;;;;;;2.55;1.17;;;;;;;19.45;45.38;100672.00;4484285;31;33898;-82
2023/10/06 09:40:46;;;;;;;2.33;0.98;;;;;;;19.52;45.30;100668.25;4484362;31;34653;-80
2023/10/06 09:43:17;;;;;;;1.75;1.00;;;;;;;19.91;43.83;100661.63;4490666;31;33539;-81
2023/10/06 09:45:52;;;;;;;3.00;1.12;;;;;;;19.59;43.47;100669.72;4482292;31;33892;-80
2023/10/06 09:48:25;;;;;;;4.53;1.30;;;;;;;19.39;42.60;100664.31;4488055;31;33721;-82
2023/10/06 09:50:57;;;;;;;3.42;1.62;;;;;;;19.55;42.23;100654.97;4487019;31;34735;-81
2023/10/06 09:53:27;;;;;;;1.35;0.82;;;;;;;19.68;42.02;100657.22;4483177;31;33554;-80
2023/10/06 09:55:56;;;;;;;7.72;1.33;;;;;;;20.37;39.68;100657.28;4477012;31;33450;-80
2023/10/06 09:58:27;;;;;;;1.80;0.95;;;;;;;20.03;41.49;100651.53;4480037;31;33855;-80
2023/10/06 11:42:48;;;;;;;3.97;0.95;;;;;;;22.13;36.27;100561.88;4478112;32;33863;-81
2023/10/06 11:45:25;;;;;;;1.00;0.60;;;;;;;22.08;36.47;100562.06;4495152;31;34780;-81
2023/10/06 11:47:55;;;;;;;1.60;0.60;;;;;;;22.08;36.00;100543.59;4492351;31;34080;-81
2023/10/06 11:50:26;;;;;;;0.40;0.37;;;;;;;21.91;37.11;100548.81;4488262;31;34145;-81
2023/10/06 11:52:55;;;;;;;1.95;0.70;;;;;;;22.18;35.78;100544.03;4488739;31;33402;-80
2023/10/06 11:55:26;;;;;;;0.70;0.40;;;;;;;21.98;35.78;100534.38;4495920;31;34674;-79
2023/10/06 11:57:56;;;;;;;1.40;0.50;;;;;;;22.09;36.16;100525.97;4490367;31;33263;-80
2023/10/06 12:00:37;;;;;;;1.50;0.50;;;;;;;22.23;35.87;100536.75;4488254;31;33834;-81
2023/10/06 12:03:07;;;;;;;1.92;0.68;;;;;;;22.40;35.21;100528.03;4490309;31;34352;-78
2023/10/06 12:05:37;;;;;;;0.30;0.30;;;;;;;22.54;35.60;100516.75;4482852;31;33561;-81
2023/10/06 12:08:08;;;;;;;1.30;0.55;;;;;;;22.04;36.34;100506.84;4493894;31;33518;-82
2023/10/06 12:10:46;;;;;;;1.15;0.50;;;;;;;22.01;37.15;100502.56;4488275;31;33530;-82
2023/10/06 12:13:17;;;;;;;0.85;0.50;;;;;;;22.13;36.53;100491.41;4487508;31;33969;-82
2023/10/06 12:15:46;;;;;;;0.50;0.50;;;;;;;22.07;35.98;100488.19;4489107;31;33742;-82
2023/10/06 12:18:16;;;;;;;0.45;0.43;;;;;;;22.28;35.94;100487.19;4483956;31;34276;-79
2023/10/06 12:20:45;;;;;;;1.12;0.70;;;;;;;22.61;34.66;100491.69;4494464;31;33448;-79
2023/10/06 12:23:14;;;;;;;1.80;0.68;;;;;;;22.15;36.57;100486.00;4488561;31;33297;-81
2023/10/06 12:25:43;;;;;;;2.05;1.08;;;;;;;22.45;35.89;100477.56;4486026;31;33512;-81
2023/10/06 12:28:16;;;;;;;1.17;0.57;;;;;;;22.24;36.05;100476.81;4489197;31;34592;-81
2023/10/06 12:30:47;;;;;;;0.68;0.50;;;;;;;22.08;36.87;100471.37;4492674;31;33215;-81
2023/10/06 12:33:16;;;;;;;1.63;0.70;;;;;;;22.70;35.23;100479.81;4481358;31;33410;-79
2023/10/06 12:35:45;;;;;;;0.98;0.65;;;;;;;22.41;36.06;100468.91;4481101;31;32721;-82
2023/10/06 12:38:14;;;;;;;0.85;0.75;;;;;;;22.66;36.04;100478.25;4487254;31;33502;-79
2023/10/06 12:40:46;;;;;;;0.50;0.30;;;;;;;23.02;34.59;100483.47;4485465;31;33801;-82
2023/10/06 12:43:16;;;;;;;0.43;0.30;;;;;;;22.94;34.77;100475.03;4485319;31;33540;-81
2023/10/06 12:45:47;;;;;;;1.30;0.32;;;;;;;22.90;35.23;100468.19;4482843;31;34430;-79
2023/10/06 12:48:16;;;;;;;1.83;0.52;;;;;;;22.85;34.74;100470.22;4482554;31;32836;-80
2023/10/06 12:50:46;;;;;;;2.15;0.40;;;;;;;22.75;34.66;100472.50;4485330;31;34254;-80
2023/10/06 12:53:16;;;;;;;0.57;0.47;;;;;;;22.67;34.63;100461.47;4486233;31;33593;-80
2023/10/06 12:55:46;;;;;;;2.12;0.50;;;;;;;22.70;34.92;100469.22;4483446;31;33572;-81
2023/10/06 12:58:15;;;;;;;0.80;0.50;;;;;;;22.83;35.18;100465.00;4487292;31;33938;-81
2023/10/06 13:00:44;;;;;;;0.68;0.40;;;;;;;22.60;35.54;100473.28;4487631;31;33061;-80
2023/10/06 13:03:16;;;;;;;0.30;0.30;;;;;;;22.82;34.37;100471.25;4486939;31;33891;-80
2023/10/06 13:05:47;;;;;;;0.55;0.30;;;;;;;22.85;34.58;100478.16;4492418;31;34504;-81
2023/10/06 13:08:20;;;;;;;0.40;0.40;;;;;;;22.63;35.01;100470.47;4486876;31;33926;-80
2023/10/06 13:10:50;;;;;;;0.75;0.40;;;;;;;22.72;34.87;100467.37;4485961;31;33124;-81
2023/10/06 13:13:19;;;;;;;0.62;0.50;;;;;;;22.66;34.30;100470.31;4492909;31;34494;-80
2023/10/06 13:15:48;;;;;;;0.52;0.35;;;;;;;22.77;34.91;100470.63;4495692;31;33654;-79
2023/10/06 13:18:18;;;;;;;0.35;0.30;;;;;;;22.71;34.67;100481.50;4490852;31;33707;-79
2023/10/06 13:20:47;;;;;;;0.65;0.43;;;;;;;22.55;34.45;100471.72;4490957;31;32900;-80
2023/10/06 13:23:21;;;;;;;0.52;0.30;;;;;;;22.88;34.65;100478.00;4491301;31;33588;-80
2023/10/06 13:25:50;;;;;;;0.55;0.35;;;;;;;23.06;34.88;100470.94;4483488;31;34023;-80
2023/10/06 13:28:20;;;;;;;5.10;0.80;;;;;;;23.03;34.75;100481.66;4491765;31;32811;-80